Chesterhill, Ohio
Current Conditions -  °F | °C
As of 6:53 AM on Monday 24 Nov 2014 (Local Time) from KPKB Reporting Station
Overcast Overcast  
Wind Chill: 62°   Ceiling: 4200
Heat Index: 62°   Visibility: 10mi
Dew Point: 51°   Wind: 9mph
Humidity: 67%   Direction: 180°S
Pressure: 29.49"   Gusts: NA
Location:  39.49°N, 81.87°W
Report Text: KPKB 241153Z 18008KT 10SM BKN042 OVC060 17/11 A2949 RMK AO2 SLP980 60000 70017 T01670106 10178 20161 51008
Loading
Personal Weather Stations






























Interactive Weather Map New forecast layout! Learn more

10-Day Weather Forecast

Advertisements
Track Severe Weather on mobile